createdAt,value
2024-03-12T00:04:44.383Z,15.15
2024-03-12T00:09:47.929Z,14.75
2024-03-12T00:14:52.928Z,16.80
2024-03-12T00:19:56.878Z,17.30
2024-03-12T00:25:00.548Z,17.83
2024-03-12T00:30:06.681Z,19.08
2024-03-12T00:35:11.572Z,19.73
2024-03-12T00:40:17.947Z,19.83
2024-03-12T00:45:26.568Z,20.67
2024-03-12T00:50:30.372Z,20.17
2024-03-12T00:55:34.392Z,19.45
2024-03-12T01:00:40.933Z,20.17
2024-03-12T01:05:44.686Z,20.65
2024-03-12T01:10:48.407Z,20.73
2024-03-12T01:15:55.281Z,20.95
2024-03-12T01:20:59.252Z,22.73
2024-03-12T01:26:04.523Z,23.70
2024-03-12T01:31:17.742Z,24.08
2024-03-12T01:36:35.300Z,24.40
2024-03-12T01:41:42.820Z,24.45
2024-03-12T01:46:47.121Z,25.35
2024-03-12T01:51:52.164Z,26.70
2024-03-12T01:56:55.793Z,27.70
2024-03-12T02:02:01.991Z,27.60
2024-03-12T02:07:07.295Z,27.90
2024-03-12T02:12:10.968Z,30.52
2024-03-12T02:17:14.575Z,36.75
2024-03-12T02:22:19.500Z,39.33
2024-03-12T02:27:24.563Z,39.88
2024-03-12T02:32:28.991Z,40.40
2024-03-12T02:37:32.686Z,40.80
2024-03-12T02:42:38.382Z,41.15
2024-03-12T02:47:42.028Z,40.97
2024-03-12T02:52:46.446Z,38.63
2024-03-12T02:57:51.680Z,36.95
2024-03-12T03:02:56.143Z,38.72
2024-03-12T03:07:59.808Z,37.90
2024-03-12T03:13:04.811Z,37.05
2024-03-12T03:18:08.761Z,37.53
2024-03-12T03:23:12.472Z,40.13
2024-03-12T03:28:17.480Z,40.30
2024-03-12T03:33:23.512Z,38.73
2024-03-12T03:38:30.129Z,38.53
2024-03-12T03:43:35.161Z,37.30
2024-03-12T03:48:39.166Z,36.77
2024-03-12T03:53:42.782Z,34.90
2024-03-12T03:58:48.541Z,35.28
2024-03-12T04:03:53.075Z,34.57
2024-03-12T04:08:56.760Z,33.28
2024-03-12T04:14:01.889Z,31.93
2024-03-12T04:19:06.191Z,33.70
2024-03-12T04:24:12.289Z,33.00
2024-03-12T04:29:17.353Z,30.47
2024-03-12T04:34:21.893Z,30.47
2024-03-12T04:39:32.948Z,27.20
2024-03-12T04:44:38.214Z,26.10
2024-03-12T04:49:42.033Z,26.83
2024-03-12T04:54:45.636Z,25.08
2024-03-12T04:59:50.986Z,24.33
2024-03-12T05:04:54.618Z,23.67
2024-03-12T05:10:00.930Z,24.13
2024-03-12T05:15:07.369Z,22.60
2024-03-12T05:20:11.768Z,22.57
2024-03-12T05:25:24.304Z,22.42
2024-03-12T05:30:30.162Z,23.40
2024-03-12T05:35:34.914Z,30.63
2024-03-12T05:40:58.493Z,22.90
2024-03-12T05:46:21.841Z,22.57
2024-03-12T05:51:25.626Z,23.40
2024-03-12T05:56:30.513Z,24.67
2024-03-12T06:01:35.687Z,22.08
2024-03-12T06:06:39.586Z,21.17
2024-03-12T06:11:43.239Z,20.37
2024-03-12T06:16:48.218Z,20.70
2024-03-12T06:21:52.339Z,20.43
2024-03-12T06:26:56.391Z,18.90
2024-03-12T06:32:01.988Z,19.60
2024-03-12T06:37:05.720Z,18.42
2024-03-12T06:42:13.439Z,19.07
2024-03-12T06:47:18.653Z,17.07
2024-03-12T06:52:23.460Z,17.40
2024-03-12T06:57:27.058Z,17.98
2024-03-12T07:02:39.313Z,16.85
2024-03-12T07:07:45.234Z,18.48
2024-03-12T07:12:48.889Z,17.70
2024-03-12T07:17:54.049Z,18.63
2024-03-12T07:22:59.805Z,19.27
2024-03-12T07:28:07.431Z,19.48
2024-03-12T07:33:13.912Z,20.47
2024-03-12T07:38:17.672Z,19.40
2024-03-12T07:43:21.514Z,19.47
2024-03-12T07:48:26.563Z,19.45
2024-03-12T07:53:31.077Z,20.35
2024-03-12T07:58:36.504Z,21.30
2024-03-12T08:03:41.460Z,19.20
2024-03-12T08:08:45.020Z,18.00
2024-03-12T08:13:49.379Z,17.47
2024-03-12T08:18:54.425Z,15.95
2024-03-12T08:23:59.523Z,18.00
2024-03-12T08:29:03.319Z,18.77
2024-03-12T08:34:10.430Z,20.77
2024-03-12T08:39:14.378Z,21.25
2024-03-12T08:44:18.595Z,21.43
2024-03-12T08:49:23.585Z,20.65
2024-03-12T08:54:27.414Z,21.88
2024-03-12T08:59:31.401Z,22.50
2024-03-12T09:04:36.296Z,22.07
2024-03-12T09:09:40.798Z,21.52
2024-03-12T09:14:44.379Z,21.23
2024-03-12T09:19:49.791Z,21.90
2024-03-12T09:24:54.922Z,20.23
2024-03-12T09:29:58.536Z,19.43
2024-03-12T09:35:04.231Z,18.73
2024-03-12T09:40:08.942Z,18.10
2024-03-12T09:45:13.669Z,16.98
2024-03-12T09:50:20.873Z,15.90
2024-03-12T09:55:26.444Z,17.10
2024-03-12T10:00:30.434Z,18.40
2024-03-12T10:05:35.424Z,17.92
2024-03-12T10:10:40.075Z,18.40
2024-03-12T10:15:58.208Z,18.63
2024-03-12T10:21:04.067Z,20.13
2024-03-12T10:26:13.861Z,21.05
2024-03-12T10:31:21.193Z,21.65
2024-03-12T10:36:33.181Z,18.60
2024-03-12T10:41:37.360Z,19.42
2024-03-12T10:46:44.185Z,19.13
2024-03-12T10:51:49.636Z,18.85
2024-03-12T10:56:53.343Z,19.98
2024-03-12T11:01:59.828Z,20.00
2024-03-12T11:07:09.389Z,21.25
2024-03-12T11:12:13.023Z,21.67
2024-03-12T11:17:32.674Z,22.33
2024-03-12T11:22:43.708Z,25.38
2024-03-12T11:27:47.332Z,21.65
2024-03-12T11:32:54.068Z,21.63
2024-03-12T11:38:11.353Z,22.15
2024-03-12T11:43:35.223Z,23.55
2024-03-12T11:48:42.057Z,22.92
2024-03-12T11:53:48.559Z,21.40
2024-03-12T11:58:59.605Z,21.65
2024-03-12T12:04:09.084Z,20.70
2024-03-12T12:09:15.398Z,22.13
2024-03-12T12:14:21.317Z,21.47
2024-03-12T12:19:32.222Z,20.45
2024-03-12T12:24:45.164Z,21.58
2024-03-12T12:29:49.288Z,21.80
2024-03-12T12:34:54.065Z,22.10
2024-03-12T12:39:59.842Z,23.38
2024-03-12T12:45:06.249Z,25.08
2024-03-12T12:50:12.477Z,24.57
2024-03-12T12:55:19.191Z,24.88
2024-03-12T13:00:24.442Z,24.17
2024-03-12T13:05:28.213Z,25.08
2024-03-12T13:10:33.244Z,24.15
2024-03-12T13:15:37.296Z,22.95
2024-03-12T13:20:41.039Z,22.15
2024-03-12T13:25:47.002Z,23.17
2024-03-12T13:30:53.008Z,23.55
2024-03-12T13:36:00.000Z,22.85
2024-03-12T13:41:05.581Z,23.15
2024-03-12T13:46:09.313Z,23.92
2024-03-12T13:51:13.034Z,23.80
2024-03-12T13:56:17.984Z,24.10
2024-03-12T14:01:22.049Z,24.00
2024-03-12T14:06:25.891Z,24.55
2024-03-12T14:11:31.441Z,25.35
2024-03-12T14:16:35.336Z,26.38
2024-03-12T14:21:39.209Z,24.90
2024-03-12T14:26:44.197Z,24.40
2024-03-12T14:31:49.109Z,24.95
2024-03-12T14:36:53.756Z,26.52
2024-03-12T14:41:59.846Z,24.70
2024-03-12T14:47:03.438Z,23.90
2024-03-12T14:52:07.846Z,26.00
2024-03-12T14:57:13.682Z,23.85
2024-03-12T15:02:17.914Z,24.05
2024-03-12T15:07:21.965Z,23.50
2024-03-12T15:12:30.029Z,24.27
2024-03-12T15:17:35.023Z,23.73
2024-03-12T15:22:39.408Z,22.85
2024-03-12T15:27:44.618Z,23.05
2024-03-12T15:32:48.857Z,22.88
2024-03-12T15:37:54.300Z,25.38
2024-03-12T15:43:01.039Z,23.85
2024-03-12T15:48:08.749Z,23.90
2024-03-12T15:53:13.674Z,23.02
2024-03-12T15:58:18.907Z,23.42
2024-03-12T16:03:25.131Z,22.50
2024-03-12T16:08:30.590Z,21.60
2024-03-12T16:13:35.950Z,23.75
2024-03-12T16:18:40.491Z,22.25
2024-03-12T16:23:44.155Z,23.40
2024-03-12T16:28:49.593Z,23.88
2024-03-12T16:33:53.371Z,24.00
2024-03-12T16:38:57.453Z,24.17
2024-03-12T16:44:03.563Z,24.00
2024-03-12T16:49:07.972Z,23.83
2024-03-12T16:54:12.423Z,24.23
2024-03-12T16:59:18.470Z,23.58
2024-03-12T17:04:22.879Z,24.38
2024-03-12T17:09:26.997Z,26.08
2024-03-12T17:14:35.907Z,24.45
2024-03-12T17:19:40.595Z,24.73
2024-03-12T17:24:47.572Z,27.08
2024-03-12T17:29:53.958Z,29.30
2024-03-12T17:34:58.965Z,27.75
2024-03-12T17:40:13.517Z,26.27
2024-03-12T17:45:19.720Z,27.23
2024-03-12T17:50:25.039Z,25.13
2024-03-12T17:55:29.669Z,25.92
2024-03-12T18:00:37.073Z,28.13
2024-03-12T18:05:44.203Z,27.67
2024-03-12T18:10:50.097Z,26.98
2024-03-12T18:15:57.088Z,27.90
2024-03-12T18:21:03.740Z,29.10
2024-03-12T18:26:07.792Z,26.65
2024-03-12T18:31:12.791Z,26.70
2024-03-12T18:36:16.435Z,26.07
2024-03-12T18:41:20.034Z,26.73
2024-03-12T18:46:25.089Z,29.07
2024-03-12T18:51:29.199Z,26.80
2024-03-12T18:56:33.411Z,25.40
2024-03-12T19:01:41.597Z,27.80
2024-03-12T19:06:45.734Z,28.10
2024-03-12T19:11:50.394Z,28.37
2024-03-12T19:16:56.326Z,25.35
2024-03-12T19:22:01.812Z,26.17
2024-03-12T19:27:08.626Z,26.00
2024-03-12T19:32:16.957Z,26.83
2024-03-12T19:37:25.825Z,26.80
2024-03-12T19:42:30.492Z,25.93
2024-03-12T19:47:36.317Z,24.20
2024-03-12T19:52:40.248Z,25.50
2024-03-12T19:57:43.861Z,24.70
2024-03-12T20:02:49.526Z,24.50
2024-03-12T20:07:54.723Z,24.07
2024-03-12T20:12:59.726Z,23.87
2024-03-12T20:18:05.558Z,21.57
2024-03-12T20:23:09.303Z,22.30
2024-03-12T20:28:14.134Z,22.07
2024-03-12T20:33:20.248Z,22.93
2024-03-12T20:38:23.928Z,20.80
2024-03-12T20:43:28.730Z,20.17
2024-03-12T20:48:33.778Z,19.70
2024-03-12T20:53:37.352Z,19.17
2024-03-12T20:58:42.100Z,19.63
2024-03-12T21:03:47.102Z,18.93
2024-03-12T21:08:50.623Z,17.57
2024-03-12T21:13:54.142Z,18.60
2024-03-12T21:18:59.921Z,16.30
2024-03-12T21:24:03.588Z,15.20
2024-03-12T21:29:07.923Z,13.52
2024-03-12T21:34:12.980Z,13.73
2024-03-12T21:39:19.661Z,13.80
2024-03-12T21:44:26.013Z,13.50
2024-03-12T21:49:31.997Z,12.47
2024-03-12T21:54:35.661Z,13.20
2024-03-12T21:59:40.302Z,11.83
2024-03-12T22:04:46.632Z,13.20
2024-03-12T22:09:50.293Z,12.85
2024-03-12T22:14:53.967Z,18.38
2024-03-12T22:19:59.997Z,13.52
2024-03-12T22:25:03.630Z,12.68
2024-03-12T22:30:09.036Z,12.20
2024-03-12T22:35:14.210Z,12.27
2024-03-12T22:40:19.819Z,12.13
2024-03-12T22:45:23.997Z,11.73
2024-03-12T22:50:29.583Z,9.70
2024-03-12T22:55:33.451Z,9.52
2024-03-12T23:00:46.336Z,10.07
2024-03-12T23:05:51.901Z,9.77
2024-03-12T23:10:56.616Z,10.50
2024-03-12T23:16:00.512Z,9.43
2024-03-12T23:21:06.461Z,9.82
2024-03-12T23:26:11.550Z,9.20
2024-03-12T23:31:15.915Z,9.05
2024-03-12T23:36:22.517Z,9.38
2024-03-12T23:41:26.716Z,8.63
2024-03-12T23:46:30.473Z,8.77
2024-03-12T23:51:35.571Z,9.10
2024-03-12T23:56:39.551Z,8.93
